Time,TemperatureF,DewpointF,PressureIn,WindDirection,WindDirectionDegrees,WindSpeedMPH,WindSpeedGustMPH,Humidity,HourlyPrecipIn,Conditions,Clouds,dailyrainin,SoftwareType,DateUTC
2013-06-09 00:01:00,71.8,68.4,30.08,North,360,2.0,7.0,89,0.05,,---,0.28,VWS V14.01,2013-06-09 04:01:00,
2013-06-09 00:02:00,71.8,68.4,30.08,North,360,1.0,7.0,89,0.05,,---,0.28,VWS V14.01,2013-06-09 04:02:00,
2013-06-09 00:03:00,71.7,68.3,30.08,North,360,2.0,3.0,89,0.03,,---,0.00,VWS V14.01,2013-06-09 04:03:00,
2013-06-09 00:08:00,71.7,68.3,30.08,North,360,2.0,4.0,89,0.04,,---,0.01,VWS V14.01,2013-06-09 04:08:00,
2013-06-09 00:13:00,71.8,68.4,30.08,North,360,3.0,4.0,89,0.04,,---,0.01,VWS V14.01,2013-06-09 04:13:00,
2013-06-09 00:18:00,71.8,68.4,30.08,North,360,1.0,4.0,89,0.04,,---,0.01,VWS V14.01,2013-06-09 04:18:00,
2013-06-09 00:23:00,71.7,68.6,30.08,North,360,0.0,4.0,90,0.05,,---,0.02,VWS V14.01,2013-06-09 04:23:00,
2013-06-09 00:28:00,71.7,68.6,30.08,North,360,3.0,4.0,90,0.05,,---,0.02,VWS V14.01,2013-06-09 04:28:00,
2013-06-09 00:33:00,71.7,68.6,30.08,North,360,0.0,4.0,90,0.05,,---,0.02,VWS V14.01,2013-06-09 04:33:00,
2013-06-09 00:38:00,71.6,68.5,30.08,North,360,0.0,4.0,90,0.05,,---,0.02,VWS V14.01,2013-06-09 04:38:00,
2013-06-09 00:44:00,71.5,68.4,30.08,North,360,2.0,4.0,90,0.06,,---,0.03,VWS V14.01,2013-06-09 04:44:00,
2013-06-09 00:49:00,71.5,68.4,30.08,North,360,2.0,4.0,90,0.06,,---,0.03,VWS V14.01,2013-06-09 04:49:00,
2013-06-09 00:54:00,71.5,68.4,30.08,North,360,1.0,4.0,90,0.07,,---,0.04,VWS V14.01,2013-06-09 04:54:00,
2013-06-09 00:59:00,71.4,68.3,30.08,North,360,0.0,4.0,90,0.07,,---,0.04,VWS V14.01,2013-06-09 04:59:00,
2013-06-09 01:04:00,71.4,68.6,30.08,North,360,0.0,0.0,91,0.04,,---,0.04,VWS V14.01,2013-06-09 05:04:00,
2013-06-09 01:09:00,71.3,68.5,30.08,North,360,0.0,0.0,91,0.04,,---,0.04,VWS V14.01,2013-06-09 05:09:00,
2013-06-09 01:14:00,71.3,68.2,30.08,North,360,4.0,4.0,90,0.05,,---,0.05,VWS V14.01,2013-06-09 05:14:00,
2013-06-09 01:19:00,71.4,68.3,30.08,North,360,1.0,5.0,90,0.05,,---,0.05,VWS V14.01,2013-06-09 05:19:00,
2013-06-09 01:24:00,71.5,68.4,30.08,North,360,3.0,5.0,90,0.06,,---,0.06,VWS V14.01,2013-06-09 05:24:00,
2013-06-09 01:29:00,71.6,68.5,30.08,North,360,2.0,5.0,90,0.06,,---,0.06,VWS V14.01,2013-06-09 05:29:00,
2013-06-09 01:34:00,71.6,68.2,30.08,North,360,0.0,5.0,89,0.07,,---,0.07,VWS V14.01,2013-06-09 05:34:00,
2013-06-09 01:39:00,71.6,68.2,30.08,North,360,0.0,5.0,89,0.07,,---,0.07,VWS V14.01,2013-06-09 05:39:00,
2013-06-09 01:44:00,71.5,68.4,30.07,North,360,0.0,5.0,90,0.08,,---,0.08,VWS V14.01,2013-06-09 05:44:00,
2013-06-09 01:49:00,71.4,68.3,30.08,North,360,0.0,5.0,90,0.08,,---,0.08,VWS V14.01,2013-06-09 05:49:00,
2013-06-09 01:55:00,71.3,68.2,30.07,North,360,0.0,5.0,90,0.09,,---,0.09,VWS V14.01,2013-06-09 05:55:00,
2013-06-09 02:00:00,71.3,68.2,30.07,North,360,0.0,5.0,90,0.10,,---,0.10,VWS V14.01,2013-06-09 06:00:00,
2013-06-09 02:05:00,71.3,68.2,30.07,North,360,0.0,0.0,90,0.06,,---,0.10,VWS V14.01,2013-06-09 06:05:00,
2013-06-09 02:10:00,71.2,68.1,30.07,North,360,2.0,4.0,90,0.07,,---,0.11,VWS V14.01,2013-06-09 06:10:00,
2013-06-09 02:15:00,71.0,67.9,30.07,North,360,3.0,5.0,90,0.07,,---,0.11,VWS V14.01,2013-06-09 06:15:00,
2013-06-09 02:20:00,70.6,67.8,30.07,North,360,3.0,6.0,91,0.08,,---,0.12,VWS V14.01,2013-06-09 06:20:00,
2013-06-09 02:25:00,70.3,67.6,30.07,North,360,5.0,6.0,91,0.09,,---,0.13,VWS V14.01,2013-06-09 06:25:00,
2013-06-09 02:30:00,70.1,67.7,30.07,North,360,3.0,6.0,92,0.10,,---,0.14,VWS V14.01,2013-06-09 06:30:00,
2013-06-09 02:35:00,69.9,67.5,30.07,North,360,0.0,6.0,92,0.10,,---,0.14,VWS V14.01,2013-06-09 06:35:00,
2013-06-09 02:40:00,69.7,67.3,30.07,North,360,0.0,6.0,92,0.11,,---,0.15,VWS V14.01,2013-06-09 06:40:00,
2013-06-09 02:45:00,69.7,67.3,30.06,North,360,0.0,6.0,92,0.12,,---,0.16,VWS V14.01,2013-06-09 06:45:00,
2013-06-09 02:50:00,69.6,67.5,30.06,North,360,0.0,6.0,93,0.13,,---,0.17,VWS V14.01,2013-06-09 06:50:00,
2013-06-09 02:56:00,69.6,67.5,30.07,North,360,0.0,6.0,93,0.13,,---,0.17,VWS V14.01,2013-06-09 06:56:00,
2013-06-09 03:01:00,69.6,67.5,30.07,North,360,0.0,6.0,93,0.14,,---,0.18,VWS V14.01,2013-06-09 07:01:00,
2013-06-09 03:06:00,69.6,67.5,30.07,North,360,0.0,0.0,93,0.09,,---,0.19,VWS V14.01,2013-06-09 07:06:00,
2013-06-09 03:11:00,69.7,67.6,30.07,North,360,0.0,4.0,93,0.10,,---,0.20,VWS V14.01,2013-06-09 07:11:00,
2013-06-09 03:16:00,69.6,67.5,30.07,North,360,2.0,4.0,93,0.11,,---,0.21,VWS V14.01,2013-06-09 07:16:00,
2013-06-09 03:21:00,69.7,67.6,30.08,North,360,0.0,4.0,93,0.12,,---,0.22,VWS V14.01,2013-06-09 07:21:00,
2013-06-09 03:26:00,69.7,67.3,30.08,North,360,3.0,4.0,92,0.12,,---,0.22,VWS V14.01,2013-06-09 07:26:00,
2013-06-09 03:31:00,69.8,67.4,30.08,North,360,0.0,4.0,92,0.13,,---,0.23,VWS V14.01,2013-06-09 07:31:00,
2013-06-09 03:36:00,69.8,67.4,30.08,North,360,2.0,4.0,92,0.14,,---,0.24,VWS V14.01,2013-06-09 07:36:00,
2013-06-09 03:41:00,69.8,67.4,30.08,North,360,1.0,4.0,92,0.15,,---,0.25,VWS V14.01,2013-06-09 07:41:00,
2013-06-09 03:46:00,69.7,67.3,30.08,North,360,0.0,4.0,92,0.16,,---,0.26,VWS V14.01,2013-06-09 07:46:00,
2013-06-09 03:51:00,69.7,67.3,30.08,North,360,0.0,4.0,92,0.18,,---,0.28,VWS V14.01,2013-06-09 07:51:00,
2013-06-09 03:57:00,69.6,67.2,30.08,North,360,0.0,4.0,92,0.19,,---,0.29,VWS V14.01,2013-06-09 07:57:00,
2013-06-09 04:02:00,69.7,67.3,30.08,North,360,0.0,4.0,92,0.20,,---,0.30,VWS V14.01,2013-06-09 08:02:00,
2013-06-09 04:07:00,69.8,67.4,30.08,North,360,2.0,4.0,92,0.13,,---,0.31,VWS V14.01,2013-06-09 08:07:00,
2013-06-09 04:12:00,69.9,67.5,30.08,North,360,2.0,4.0,92,0.15,,---,0.33,VWS V14.01,2013-06-09 08:12:00,
2013-06-09 04:17:00,70.0,67.6,30.08,North,360,2.0,4.0,92,0.16,,---,0.34,VWS V14.01,2013-06-09 08:17:00,
2013-06-09 04:22:00,70.1,67.4,30.08,North,360,1.0,4.0,91,0.17,,---,0.35,VWS V14.01,2013-06-09 08:22:00,
2013-06-09 04:27:00,70.2,67.4,30.08,North,360,0.0,4.0,91,0.19,,---,0.37,VWS V14.01,2013-06-09 08:27:00,
2013-06-09 04:32:00,69.9,67.2,30.08,North,360,0.0,4.0,91,0.20,,---,0.38,VWS V14.01,2013-06-09 08:32:00,
2013-06-09 04:37:00,69.8,67.1,30.08,North,360,0.0,4.0,91,0.21,,---,0.39,VWS V14.01,2013-06-09 08:37:00,
2013-06-09 04:42:00,69.4,66.7,30.08,North,360,0.0,4.0,91,0.23,,---,0.41,VWS V14.01,2013-06-09 08:42:00,
2013-06-09 04:47:00,69.3,66.9,30.09,North,360,0.0,4.0,92,0.24,,---,0.42,VWS V14.01,2013-06-09 08:47:00,
2013-06-09 04:52:00,69.0,66.6,30.09,North,360,2.0,4.0,92,0.26,,---,0.44,VWS V14.01,2013-06-09 08:52:00,
2013-06-09 04:57:00,68.6,66.2,30.09,North,360,0.0,4.0,92,0.27,,---,0.45,VWS V14.01,2013-06-09 08:57:00,
2013-06-09 05:02:00,68.3,65.9,30.09,North,360,0.0,4.0,92,0.28,,---,0.46,VWS V14.01,2013-06-09 09:02:00,
2013-06-09 05:08:00,68.2,66.1,30.09,North,360,0.0,0.0,93,0.18,,---,0.48,VWS V14.01,2013-06-09 09:08:00,
2013-06-09 05:13:00,67.9,65.8,30.09,North,360,0.0,0.0,93,0.19,,---,0.49,VWS V14.01,2013-06-09 09:13:00,
2013-06-09 05:18:00,67.8,66.0,30.10,North,360,0.0,0.0,94,0.20,,---,0.50,VWS V14.01,2013-06-09 09:18:00,
2013-06-09 05:23:00,67.8,66.0,30.10,North,360,0.0,0.0,94,0.22,,---,0.52,VWS V14.01,2013-06-09 09:23:00,
2013-06-09 05:28:00,67.7,65.9,30.10,North,360,0.0,0.0,94,0.23,,---,0.53,VWS V14.01,2013-06-09 09:28:00,
2013-06-09 05:33:00,67.7,65.9,30.10,North,360,0.0,0.0,94,0.24,,---,0.54,VWS V14.01,2013-06-09 09:33:00,
2013-06-09 05:38:00,67.6,65.8,30.10,North,360,0.0,0.0,94,0.26,,---,0.56,VWS V14.01,2013-06-09 09:38:00,
2013-06-09 05:43:00,67.5,65.7,30.11,North,360,0.0,0.0,94,0.27,,---,0.57,VWS V14.01,2013-06-09 09:43:00,
2013-06-09 05:48:00,67.5,66.0,30.11,North,360,0.0,0.0,95,0.28,,---,0.58,VWS V14.01,2013-06-09 09:48:00,
2013-06-09 05:53:00,67.5,66.0,30.11,North,360,0.0,0.0,95,0.29,,---,0.59,VWS V14.01,2013-06-09 09:53:00,
2013-06-09 05:58:00,67.3,65.5,30.11,North,360,0.0,0.0,94,0.30,,---,0.60,VWS V14.01,2013-06-09 09:58:00,
2013-06-09 06:03:00,67.3,65.8,30.11,North,360,2.0,3.0,95,0.16,,---,0.62,VWS V14.01,2013-06-09 10:03:00,
2013-06-09 06:08:00,67.4,65.9,30.11,North,360,2.0,4.0,95,0.17,,---,0.63,VWS V14.01,2013-06-09 10:08:00,
2013-06-09 06:13:00,67.6,66.1,30.11,North,360,2.0,4.0,95,0.18,,---,0.64,VWS V14.01,2013-06-09 10:13:00,
2013-06-09 06:18:00,67.6,66.1,30.11,North,360,0.0,4.0,95,0.19,,---,0.65,VWS V14.01,2013-06-09 10:18:00,
2013-06-09 06:23:00,67.6,66.1,30.11,North,360,0.0,4.0,95,0.20,,---,0.66,VWS V14.01,2013-06-09 10:23:00,
2013-06-09 06:28:00,67.5,66.0,30.11,North,360,3.0,4.0,95,0.21,,---,0.67,VWS V14.01,2013-06-09 10:28:00,
2013-06-09 06:33:00,67.5,66.0,30.11,North,360,3.0,4.0,95,0.22,,---,0.68,VWS V14.01,2013-06-09 10:33:00,
2013-06-09 06:38:00,67.5,66.0,30.11,North,360,2.0,4.0,95,0.23,,---,0.69,VWS V14.01,2013-06-09 10:38:00,
2013-06-09 06:43:00,67.5,66.0,30.12,North,360,1.0,4.0,95,0.24,,---,0.70,VWS V14.01,2013-06-09 10:43:00,
2013-06-09 06:49:00,67.6,66.4,30.11,North,360,3.0,4.0,96,0.25,,---,0.71,VWS V14.01,2013-06-09 10:49:00,
2013-06-09 06:54:00,67.7,66.5,30.12,North,360,4.0,4.0,96,0.26,,---,0.72,VWS V14.01,2013-06-09 10:54:00,
2013-06-09 06:59:00,67.7,66.5,30.12,North,360,3.0,5.0,96,0.27,,---,0.73,VWS V14.01,2013-06-09 10:59:00,
2013-06-09 07:04:00,67.8,66.6,30.12,North,360,4.0,4.0,96,0.13,,---,0.74,VWS V14.01,2013-06-09 11:04:00,
2013-06-09 07:09:00,67.9,66.7,30.12,North,360,5.0,6.0,96,0.14,,---,0.75,VWS V14.01,2013-06-09 11:09:00,
2013-06-09 07:14:00,68.0,66.8,30.12,North,360,4.0,6.0,96,0.15,,---,0.76,VWS V14.01,2013-06-09 11:14:00,
2013-06-09 07:19:00,68.3,67.1,30.12,North,360,5.0,6.0,96,0.15,,---,0.76,VWS V14.01,2013-06-09 11:19:00,
2013-06-09 07:24:00,68.6,67.1,30.12,North,360,2.0,6.0,95,0.16,,---,0.77,VWS V14.01,2013-06-09 11:24:00,
2013-06-09 07:29:00,68.9,67.4,30.12,North,360,2.0,6.0,95,0.17,,---,0.78,VWS V14.01,2013-06-09 11:29:00,
2013-06-09 07:34:00,69.2,67.7,30.13,North,360,5.0,6.0,95,0.17,,---,0.78,VWS V14.01,2013-06-09 11:34:00,
2013-06-09 07:39:00,69.5,68.0,30.13,North,360,6.0,7.0,95,0.18,,---,0.79,VWS V14.01,2013-06-09 11:39:00,
2013-06-09 07:44:00,69.7,67.9,30.13,North,360,7.0,7.0,94,0.18,,---,0.79,VWS V14.01,2013-06-09 11:44:00,
2013-06-09 07:49:00,69.8,67.7,30.14,North,360,6.0,7.0,93,0.19,,---,0.80,VWS V14.01,2013-06-09 11:49:00,
2013-06-09 07:54:00,70.0,67.9,30.14,North,360,3.0,7.0,93,0.19,,---,0.80,VWS V14.01,2013-06-09 11:54:00,
2013-06-09 07:59:00,70.3,68.2,30.14,North,360,4.0,7.0,93,0.19,,---,0.80,VWS V14.01,2013-06-09 11:59:00,
2013-06-09 08:05:00,70.6,68.2,30.14,North,360,4.0,6.0,92,0.06,,---,0.80,VWS V14.01,2013-06-09 12:05:00,
2013-06-09 08:10:00,70.9,68.5,30.14,North,360,5.0,6.0,92,0.06,,---,0.80,VWS V14.01,2013-06-09 12:10:00,
2013-06-09 08:15:00,71.3,68.9,30.14,North,360,5.0,6.0,92,0.06,,---,0.80,VWS V14.01,2013-06-09 12:15:00,
2013-06-09 08:20:00,71.6,68.8,30.14,North,360,4.0,6.0,91,0.06,,---,0.80,VWS V14.01,2013-06-09 12:20:00,
2013-06-09 08:25:00,71.8,69.0,30.14,North,360,3.0,6.0,91,0.06,,---,0.80,VWS V14.01,2013-06-09 12:25:00,
2013-06-09 08:30:00,72.3,69.2,30.14,North,360,5.0,6.0,90,0.06,,---,0.80,VWS V14.01,2013-06-09 12:30:00,
2013-06-09 08:35:00,72.7,69.3,30.14,North,360,0.0,6.0,89,0.06,,---,0.80,VWS V14.01,2013-06-09 12:35:00,
2013-06-09 08:40:00,73.2,69.8,30.14,North,360,2.0,6.0,89,0.06,,---,0.80,VWS V14.01,2013-06-09 12:40:00,
2013-06-09 08:45:00,73.4,69.6,30.14,North,360,1.0,6.0,88,0.06,,---,0.80,VWS V14.01,2013-06-09 12:45:00,
2013-06-09 08:50:00,73.6,69.8,30.15,North,360,3.0,6.0,88,0.06,,---,0.80,VWS V14.01,2013-06-09 12:50:00,
2013-06-09 08:55:00,73.9,69.8,30.14,North,360,4.0,6.0,87,0.06,,---,0.80,VWS V14.01,2013-06-09 12:55:00,
2013-06-09 09:01:00,74.1,70.3,30.15,North,360,2.0,6.0,88,0.06,,---,0.80,VWS V14.01,2013-06-09 13:01:00,
2013-06-09 09:06:00,74.6,70.5,30.15,North,360,0.0,2.0,87,0.00,,---,0.80,VWS V14.01,2013-06-09 13:06:00,
2013-06-09 09:11:00,75.2,70.7,30.15,North,360,3.0,5.0,86,0.00,,---,0.80,VWS V14.01,2013-06-09 13:11:00,
2013-06-09 09:16:00,75.6,70.4,30.15,North,360,4.0,5.0,84,0.00,,---,0.80,VWS V14.01,2013-06-09 13:16:00,
2013-06-09 09:21:00,75.9,70.4,30.14,North,360,0.0,5.0,83,0.00,,---,0.80,VWS V14.01,2013-06-09 13:21:00,
2013-06-09 09:26:00,76.2,70.7,30.15,North,360,3.0,5.0,83,0.00,,---,0.80,VWS V14.01,2013-06-09 13:26:00,
2013-06-09 09:31:00,76.6,70.7,30.14,North,360,0.0,6.0,82,0.00,,---,0.80,VWS V14.01,2013-06-09 13:31:00,
2013-06-09 09:36:00,76.8,71.2,30.14,North,360,2.0,6.0,83,0.00,,---,0.80,VWS V14.01,2013-06-09 13:36:00,
2013-06-09 09:41:00,77.2,70.9,30.14,North,360,3.0,6.0,81,0.00,,---,0.80,VWS V14.01,2013-06-09 13:41:00,
2013-06-09 09:46:00,77.3,71.0,30.14,North,360,3.0,6.0,81,0.00,,---,0.80,VWS V14.01,2013-06-09 13:46:00,
2013-06-09 09:51:00,77.3,70.7,30.14,North,360,4.0,7.0,80,0.00,,---,0.80,VWS V14.01,2013-06-09 13:51:00,
2013-06-09 09:56:00,77.6,70.9,30.14,North,360,3.0,9.0,80,0.00,,---,0.80,VWS V14.01,2013-06-09 13:56:00,
2013-06-09 10:02:00,77.8,70.8,30.14,North,360,6.0,10.0,79,0.00,,---,0.80,VWS V14.01,2013-06-09 14:02:00,
2013-06-09 10:07:00,77.8,70.0,30.14,North,360,3.0,10.0,77,0.00,,---,0.80,VWS V14.01,2013-06-09 14:07:00,
2013-06-09 10:12:00,77.7,71.0,30.13,North,360,3.0,10.0,80,0.00,,---,0.80,VWS V14.01,2013-06-09 14:12:00,
2013-06-09 10:17:00,77.8,70.8,30.14,North,360,4.0,10.0,79,0.00,,---,0.80,VWS V14.01,2013-06-09 14:17:00,
2013-06-09 10:22:00,78.0,70.6,30.13,North,360,3.0,10.0,78,0.00,,---,0.80,VWS V14.01,2013-06-09 14:22:00,
2013-06-09 10:27:00,78.3,70.1,30.13,North,360,5.0,10.0,76,0.00,,---,0.80,VWS V14.01,2013-06-09 14:27:00,
2013-06-09 10:32:00,78.3,70.1,30.13,North,360,3.0,10.0,76,0.00,,---,0.80,VWS V14.01,2013-06-09 14:32:00,
2013-06-09 10:37:00,78.5,69.9,30.13,North,360,6.0,10.0,75,0.00,,---,0.80,VWS V14.01,2013-06-09 14:37:00,
2013-06-09 10:42:00,78.4,69.4,30.13,North,360,3.0,11.0,74,0.00,,---,0.80,VWS V14.01,2013-06-09 14:42:00,
2013-06-09 10:47:00,78.7,70.5,30.13,North,360,9.0,11.0,76,0.00,,---,0.80,VWS V14.01,2013-06-09 14:47:00,
2013-06-09 10:52:00,79.3,70.3,30.13,North,360,6.0,11.0,74,0.00,,---,0.80,VWS V14.01,2013-06-09 14:52:00,
2013-06-09 10:57:00,79.7,69.5,30.13,North,360,7.0,11.0,71,0.00,,---,0.80,VWS V14.01,2013-06-09 14:57:00,
2013-06-09 11:02:00,79.9,70.1,30.13,North,360,4.0,11.0,72,0.00,,---,0.80,VWS V14.01,2013-06-09 15:02:00,
2013-06-09 11:07:00,80.2,68.7,30.12,North,360,4.0,10.0,68,0.00,,---,0.80,VWS V14.01,2013-06-09 15:07:00,
2013-06-09 11:12:00,80.0,69.8,30.13,North,360,2.0,10.0,71,0.00,,---,0.80,VWS V14.01,2013-06-09 15:12:00,
2013-06-09 11:18:00,80.7,70.0,30.12,North,360,4.0,10.0,70,0.00,,---,0.80,VWS V14.01,2013-06-09 15:18:00,
2013-06-09 11:23:00,81.0,69.9,30.12,North,360,5.0,10.0,69,0.00,,---,0.80,VWS V14.01,2013-06-09 15:23:00,
2013-06-09 11:28:00,81.2,70.1,30.12,North,360,3.0,10.0,69,0.00,,---,0.80,VWS V14.01,2013-06-09 15:28:00,
2013-06-09 11:33:00,81.2,69.2,30.13,North,360,6.0,10.0,67,0.00,,---,0.80,VWS V14.01,2013-06-09 15:33:00,
2013-06-09 11:38:00,80.7,68.3,30.12,North,360,0.0,10.0,66,0.00,,---,0.80,VWS V14.01,2013-06-09 15:38:00,
2013-06-09 11:43:00,80.9,68.5,30.12,North,360,0.0,10.0,66,0.00,,---,0.80,VWS V14.01,2013-06-09 15:43:00,
2013-06-09 11:48:00,81.4,69.0,30.13,North,360,5.0,13.0,66,0.00,,---,0.80,VWS V14.01,2013-06-09 15:48:00,
2013-06-09 11:53:00,81.9,69.9,30.13,North,360,3.0,13.0,67,0.00,,---,0.80,VWS V14.01,2013-06-09 15:53:00,
2013-06-09 11:58:00,81.9,69.0,30.12,North,360,3.0,13.0,65,0.00,,---,0.80,VWS V14.01,2013-06-09 15:58:00,
2013-06-09 12:03:00,82.1,68.7,30.12,North,360,6.0,7.0,64,0.00,,---,0.80,VWS V14.01,2013-06-09 16:03:00,
2013-06-09 12:08:00,82.0,68.6,30.12,North,360,3.0,8.0,64,0.00,,---,0.80,VWS V14.01,2013-06-09 16:08:00,
2013-06-09 12:14:00,82.3,68.9,30.12,North,360,7.0,13.0,64,0.00,,---,0.80,VWS V14.01,2013-06-09 16:14:00,
2013-06-09 12:19:00,82.3,68.9,30.12,North,360,4.0,13.0,64,0.00,,---,0.80,VWS V14.01,2013-06-09 16:19:00,
2013-06-09 12:24:00,82.5,68.2,30.12,North,360,0.0,13.0,62,0.00,,---,0.80,VWS V14.01,2013-06-09 16:24:00,
2013-06-09 12:29:00,83.1,69.2,30.12,North,360,1.0,13.0,63,0.00,,---,0.80,VWS V14.01,2013-06-09 16:29:00,
2013-06-09 12:34:00,83.5,69.6,30.12,North,360,4.0,13.0,63,0.00,,---,0.80,VWS V14.01,2013-06-09 16:34:00,
2013-06-09 12:39:00,83.3,68.9,30.12,North,360,9.0,13.0,62,0.00,,---,0.80,VWS V14.01,2013-06-09 16:39:00,
2013-06-09 12:44:00,82.6,69.7,30.12,North,360,5.0,13.0,65,0.00,,---,0.80,VWS V14.01,2013-06-09 16:44:00,
2013-06-09 12:49:00,82.1,68.3,30.12,North,360,3.0,13.0,63,0.00,,---,0.80,VWS V14.01,2013-06-09 16:49:00,
2013-06-09 12:54:00,82.5,69.6,30.11,North,360,9.0,13.0,65,0.00,,---,0.80,VWS V14.01,2013-06-09 16:54:00,
2013-06-09 12:59:00,83.1,69.2,30.11,North,360,9.0,13.0,63,0.00,,---,0.80,VWS V14.01,2013-06-09 16:59:00,
2013-06-09 13:04:00,83.4,69.0,30.11,North,360,5.0,13.0,62,0.00,,---,0.80,VWS V14.01,2013-06-09 17:04:00,
2013-06-09 13:09:00,83.1,68.7,30.10,North,360,5.0,13.0,62,0.00,,---,0.80,VWS V14.01,2013-06-09 17:09:00,
2013-06-09 13:14:00,83.5,69.6,30.10,North,360,5.0,13.0,63,0.00,,---,0.80,VWS V14.01,2013-06-09 17:14:00,
2013-06-09 13:19:00,83.2,69.8,30.10,North,360,11.0,13.0,64,0.00,,---,0.80,VWS V14.01,2013-06-09 17:19:00,
2013-06-09 13:24:00,83.0,69.6,30.10,North,360,6.0,13.0,64,0.00,,---,0.80,VWS V14.01,2013-06-09 17:24:00,
2013-06-09 13:29:00,83.2,68.4,30.10,North,360,4.0,14.0,61,0.00,,---,0.80,VWS V14.01,2013-06-09 17:29:00,
2013-06-09 13:34:00,83.6,68.7,30.09,North,360,0.0,14.0,61,0.00,,---,0.80,VWS V14.01,2013-06-09 17:34:00,
2013-06-09 13:39:00,84.0,69.1,30.09,North,360,2.0,14.0,61,0.00,,---,0.80,VWS V14.01,2013-06-09 17:39:00,
2013-06-09 13:44:00,84.1,70.2,30.09,North,360,4.0,14.0,63,0.00,,---,0.80,VWS V14.01,2013-06-09 17:44:00,
2013-06-09 13:49:00,84.1,69.2,30.09,North,360,5.0,14.0,61,0.00,,---,0.80,VWS V14.01,2013-06-09 17:49:00,
2013-06-09 13:54:00,84.0,69.1,30.09,North,360,2.0,14.0,61,0.00,,---,0.80,VWS V14.01,2013-06-09 17:54:00,
2013-06-09 13:59:00,84.3,69.4,30.09,North,360,4.0,14.0,61,0.00,,---,0.80,VWS V14.01,2013-06-09 17:59:00,
2013-06-09 14:05:00,84.2,68.8,30.08,North,360,5.0,10.0,60,0.00,,---,0.80,VWS V14.01,2013-06-09 18:05:00,
2013-06-09 14:10:00,84.4,69.0,30.08,North,360,7.0,11.0,60,0.00,,---,0.80,VWS V14.01,2013-06-09 18:10:00,
2013-06-09 14:15:00,84.2,68.8,30.08,North,360,7.0,11.0,60,0.00,,---,0.80,VWS V14.01,2013-06-09 18:15:00,
2013-06-09 14:20:00,84.3,68.4,30.07,North,360,6.0,13.0,59,0.00,,---,0.80,VWS V14.01,2013-06-09 18:20:00,
2013-06-09 14:25:00,84.4,69.0,30.07,North,360,5.0,13.0,60,0.00,,---,0.80,VWS V14.01,2013-06-09 18:25:00,
2013-06-09 14:30:00,84.3,69.9,30.07,North,360,7.0,13.0,62,0.00,,---,0.80,VWS V14.01,2013-06-09 18:30:00,
2013-06-09 14:35:00,84.3,69.9,30.07,North,360,7.0,13.0,62,0.00,,---,0.80,VWS V14.01,2013-06-09 18:35:00,
2013-06-09 14:40:00,84.5,69.1,30.07,North,360,4.0,13.0,60,0.00,,---,0.80,VWS V14.01,2013-06-09 18:40:00,
2013-06-09 14:45:00,84.4,69.0,30.07,North,360,4.0,13.0,60,0.00,,---,0.80,VWS V14.01,2013-06-09 18:45:00,
2013-06-09 14:50:00,84.4,70.0,30.07,North,360,8.0,14.0,62,0.00,,---,0.80,VWS V14.01,2013-06-09 18:50:00,
2013-06-09 14:55:00,84.2,69.3,30.07,North,360,8.0,14.0,61,0.00,,---,0.80,VWS V14.01,2013-06-09 18:55:00,
2013-06-09 15:00:00,83.7,70.2,30.07,North,360,6.0,14.0,64,0.00,,---,0.80,VWS V14.01,2013-06-09 19:00:00,
2013-06-09 15:05:00,83.6,70.1,30.07,North,360,10.0,11.0,64,0.00,,---,0.80,VWS V14.01,2013-06-09 19:05:00,
2013-06-09 15:10:00,84.2,70.7,30.07,North,360,7.0,13.0,64,0.00,,---,0.80,VWS V14.01,2013-06-09 19:10:00,
2013-06-09 15:15:00,84.5,71.4,30.07,North,360,12.0,13.0,65,0.00,,---,0.80,VWS V14.01,2013-06-09 19:15:00,
2013-06-09 15:20:00,84.4,70.4,30.06,North,360,6.0,14.0,63,0.00,,---,0.80,VWS V14.01,2013-06-09 19:20:00,
2013-06-09 15:26:00,83.9,70.4,30.06,North,360,6.0,14.0,64,0.00,,---,0.80,VWS V14.01,2013-06-09 19:26:00,
2013-06-09 15:31:00,83.9,70.0,30.06,North,360,9.0,14.0,63,0.00,,---,0.80,VWS V14.01,2013-06-09 19:31:00,
2013-06-09 15:36:00,83.8,70.8,30.05,North,360,9.0,14.0,65,0.00,,---,0.80,VWS V14.01,2013-06-09 19:36:00,
2013-06-09 15:41:00,84.0,70.5,30.05,North,360,6.0,14.0,64,0.00,,---,0.80,VWS V14.01,2013-06-09 19:41:00,
2013-06-09 15:46:00,84.3,70.3,30.05,North,360,8.0,17.0,63,0.00,,---,0.80,VWS V14.01,2013-06-09 19:46:00,
2013-06-09 15:51:00,84.2,70.2,30.05,North,360,6.0,17.0,63,0.00,,---,0.80,VWS V14.01,2013-06-09 19:51:00,
2013-06-09 15:56:00,84.3,69.4,30.04,North,360,10.0,17.0,61,0.00,,---,0.80,VWS V14.01,2013-06-09 19:56:00,
2013-06-09 16:01:00,84.3,69.9,30.05,North,360,5.0,17.0,62,0.00,,---,0.80,VWS V14.01,2013-06-09 20:01:00,
2013-06-09 16:07:00,84.4,70.0,30.04,North,360,5.0,12.0,62,0.00,,---,0.80,VWS V14.01,2013-06-09 20:07:00,
2013-06-09 16:12:00,84.0,69.6,30.04,North,360,7.0,13.0,62,0.00,,---,0.80,VWS V14.01,2013-06-09 20:12:00,
2013-06-09 16:17:00,83.9,69.0,30.04,North,360,10.0,13.0,61,0.00,,---,0.80,VWS V14.01,2013-06-09 20:17:00,
2013-06-09 16:22:00,83.8,69.4,30.04,North,360,6.0,13.0,62,0.00,,---,0.80,VWS V14.01,2013-06-09 20:22:00,
2013-06-09 16:27:00,83.8,68.9,30.04,North,360,9.0,13.0,61,0.00,,---,0.80,VWS V14.01,2013-06-09 20:27:00,
2013-06-09 16:32:00,83.8,68.4,30.04,North,360,7.0,14.0,60,0.00,,---,0.80,VWS V14.01,2013-06-09 20:32:00,
2013-06-09 16:37:00,83.7,69.8,30.04,North,360,9.0,14.0,63,0.00,,---,0.80,VWS V14.01,2013-06-09 20:37:00,
2013-06-09 16:42:00,83.6,69.2,30.05,North,360,9.0,14.0,62,0.00,,---,0.80,VWS V14.01,2013-06-09 20:42:00,
2013-06-09 16:47:00,83.5,70.1,30.04,North,360,6.0,14.0,64,0.00,,---,0.80,VWS V14.01,2013-06-09 20:47:00,
2013-06-09 16:52:00,83.3,69.9,30.04,North,360,10.0,14.0,64,0.00,,---,0.80,VWS V14.01,2013-06-09 20:52:00,
2013-06-09 16:57:00,82.9,70.4,30.04,North,360,9.0,15.0,66,0.00,,---,0.80,VWS V14.01,2013-06-09 20:57:00,
2013-06-09 17:02:00,82.7,70.6,30.04,North,360,4.0,16.0,67,0.00,,---,0.80,VWS V14.01,2013-06-09 21:02:00,
2013-06-09 17:07:00,82.5,70.4,30.04,North,360,6.0,14.0,67,0.00,,---,0.80,VWS V14.01,2013-06-09 21:07:00,
2013-06-09 17:12:00,82.4,70.8,30.04,North,360,12.0,15.0,68,0.00,,---,0.80,VWS V14.01,2013-06-09 21:12:00,
2013-06-09 17:17:00,82.2,71.0,30.04,North,360,6.0,15.0,69,0.00,,---,0.80,VWS V14.01,2013-06-09 21:17:00,
2013-06-09 17:22:00,82.0,71.3,30.05,North,360,6.0,15.0,70,0.00,,---,0.80,VWS V14.01,2013-06-09 21:22:00,
2013-06-09 17:27:00,81.7,71.4,30.05,North,360,7.0,15.0,71,0.00,,---,0.80,VWS V14.01,2013-06-09 21:27:00,
2013-06-09 17:32:00,81.4,71.5,30.05,North,360,6.0,15.0,72,0.00,,---,0.80,VWS V14.01,2013-06-09 21:32:00,
2013-06-09 17:37:00,81.2,71.3,30.05,North,360,11.0,15.0,72,0.00,,---,0.80,VWS V14.01,2013-06-09 21:37:00,
2013-06-09 17:42:00,80.9,71.8,30.05,North,360,7.0,15.0,74,0.00,,---,0.80,VWS V14.01,2013-06-09 21:42:00,
2013-06-09 17:48:00,80.3,72.4,30.06,North,360,5.0,15.0,77,0.00,,---,0.80,VWS V14.01,2013-06-09 21:48:00,
2013-06-09 17:53:00,79.7,71.9,30.06,North,360,4.0,15.0,77,0.00,,---,0.80,VWS V14.01,2013-06-09 21:53:00,
2013-06-09 17:58:00,79.3,71.5,30.06,North,360,8.0,15.0,77,0.00,,---,0.80,VWS V14.01,2013-06-09 21:58:00,
2013-06-09 18:03:00,79.1,71.3,30.06,North,360,5.0,5.0,77,0.00,,---,0.80,VWS V14.01,2013-06-09 22:03:00,
2013-06-09 18:08:00,78.7,71.6,30.06,North,360,20.0,20.0,79,0.00,,---,0.80,VWS V14.01,2013-06-09 22:08:00,
2013-06-09 18:13:00,77.5,71.6,30.07,North,360,9.0,20.0,82,0.00,,---,0.80,VWS V14.01,2013-06-09 22:13:00,
2013-06-09 18:18:00,76.3,71.8,30.07,North,360,10.0,20.0,86,0.00,,---,0.80,VWS V14.01,2013-06-09 22:18:00,
2013-06-09 18:23:00,75.5,71.7,30.06,North,360,10.0,20.0,88,0.00,,---,0.80,VWS V14.01,2013-06-09 22:23:00,
2013-06-09 18:28:00,74.9,71.4,30.06,North,360,5.0,20.0,89,0.00,,---,0.80,VWS V14.01,2013-06-09 22:28:00,
2013-06-09 18:33:00,74.6,71.5,30.06,North,360,11.0,20.0,90,0.00,,---,0.80,VWS V14.01,2013-06-09 22:33:00,
2013-06-09 18:38:00,74.3,71.2,30.06,North,360,16.0,20.0,90,0.00,,---,0.80,VWS V14.01,2013-06-09 22:38:00,
2013-06-09 18:43:00,74.2,71.1,30.06,North,360,6.0,20.0,90,0.00,,---,0.80,VWS V14.01,2013-06-09 22:43:00,
2013-06-09 18:49:00,74.0,70.9,30.06,North,360,6.0,20.0,90,0.00,,---,0.80,VWS V14.01,2013-06-09 22:49:00,
2013-06-09 18:54:00,73.9,70.8,30.07,North,360,6.0,20.0,90,0.00,,---,0.80,VWS V14.01,2013-06-09 22:54:00,
2013-06-09 18:59:00,73.8,70.7,30.06,North,360,9.0,20.0,90,0.00,,---,0.80,VWS V14.01,2013-06-09 22:59:00,
2013-06-09 19:04:00,73.7,70.6,30.06,North,360,6.0,10.0,90,0.00,,---,0.80,VWS V14.01,2013-06-09 23:04:00,
2013-06-09 19:09:00,73.7,70.6,30.06,North,360,6.0,13.0,90,0.00,,---,0.80,VWS V14.01,2013-06-09 23:09:00,
2013-06-09 19:14:00,73.6,70.5,30.06,North,360,5.0,13.0,90,0.00,,---,0.80,VWS V14.01,2013-06-09 23:14:00,
2013-06-09 19:19:00,73.5,70.7,30.07,North,360,6.0,13.0,91,0.00,,---,0.80,VWS V14.01,2013-06-09 23:19:00,
2013-06-09 19:24:00,73.4,70.6,30.07,North,360,6.0,13.0,91,0.00,,---,0.80,VWS V14.01,2013-06-09 23:24:00,
2013-06-09 19:29:00,73.3,70.5,30.07,North,360,5.0,13.0,91,0.00,,---,0.80,VWS V14.01,2013-06-09 23:29:00,
2013-06-09 19:34:00,73.2,70.4,30.08,North,360,6.0,13.0,91,0.00,,---,0.80,VWS V14.01,2013-06-09 23:34:00,
2013-06-09 19:39:00,73.1,70.3,30.08,North,360,7.0,13.0,91,0.00,,---,0.80,VWS V14.01,2013-06-09 23:39:00,
2013-06-09 19:45:00,73.0,70.2,30.08,North,360,5.0,13.0,91,0.00,,---,0.80,VWS V14.01,2013-06-09 23:45:00,
2013-06-09 19:50:00,72.8,70.0,30.08,North,360,6.0,13.0,91,0.00,,---,0.80,VWS V14.01,2013-06-09 23:50:00,
2013-06-09 19:55:00,72.8,70.0,30.08,North,360,5.0,13.0,91,0.00,,---,0.80,VWS V14.01,2013-06-09 23:55:00,
2013-06-09 20:00:00,72.8,70.3,30.08,North,360,4.0,13.0,92,0.00,,---,0.80,VWS V14.01,2013-06-10 00:00:00,
2013-06-09 20:05:00,72.7,69.9,30.08,North,360,7.0,11.0,91,0.00,,---,0.80,VWS V14.01,2013-06-10 00:05:00,
2013-06-09 20:10:00,72.6,69.8,30.08,North,360,7.0,11.0,91,0.00,,---,0.80,VWS V14.01,2013-06-10 00:10:00,
2013-06-09 20:15:00,72.7,69.6,30.07,North,360,9.0,12.0,90,0.00,,---,0.80,VWS V14.01,2013-06-10 00:15:00,
2013-06-09 20:20:00,72.7,69.6,30.07,North,360,9.0,12.0,90,0.00,,---,0.80,VWS V14.01,2013-06-10 00:20:00,
2013-06-09 20:25:00,72.6,69.2,30.07,North,360,5.0,13.0,89,0.00,,---,0.80,VWS V14.01,2013-06-10 00:25:00,
2013-06-09 20:30:00,72.6,69.2,30.08,North,360,5.0,13.0,89,0.00,,---,0.80,VWS V14.01,2013-06-10 00:30:00,
2013-06-09 20:35:00,72.5,69.1,30.08,North,360,3.0,13.0,89,0.00,,---,0.80,VWS V14.01,2013-06-10 00:35:00,
2013-06-09 20:40:00,72.3,68.9,30.08,North,360,6.0,13.0,89,0.00,,---,0.80,VWS V14.01,2013-06-10 00:40:00,
2013-06-09 20:45:00,72.3,68.6,30.08,North,360,4.0,13.0,88,0.00,,---,0.80,VWS V14.01,2013-06-10 00:45:00,
2013-06-09 20:50:00,72.2,68.4,30.07,North,360,5.0,13.0,88,0.00,,---,0.80,VWS V14.01,2013-06-10 00:50:00,
2013-06-09 20:55:00,72.1,68.7,30.07,North,360,0.0,13.0,89,0.00,,---,0.80,VWS V14.01,2013-06-10 00:55:00,
2013-06-09 21:00:00,72.0,68.6,30.07,North,360,2.0,13.0,89,0.00,,---,0.80,VWS V14.01,2013-06-10 01:00:00,
2013-06-09 21:05:00,72.0,68.6,30.08,North,360,0.0,0.0,89,0.00,,---,0.80,VWS V14.01,2013-06-10 01:05:00,
2013-06-09 21:10:00,71.9,68.8,30.08,North,360,0.0,3.0,90,0.00,,---,0.80,VWS V14.01,2013-06-10 01:10:00,
2013-06-09 21:15:00,71.8,68.7,30.08,North,360,1.0,4.0,90,0.00,,---,0.80,VWS V14.01,2013-06-10 01:15:00,
2013-06-09 21:20:00,71.6,68.5,30.07,North,360,0.0,4.0,90,0.00,,---,0.80,VWS V14.01,2013-06-10 01:20:00,
2013-06-09 21:26:00,71.5,68.4,30.08,North,360,0.0,4.0,90,0.00,,---,0.80,VWS V14.01,2013-06-10 01:26:00,
2013-06-09 21:31:00,71.4,68.3,30.08,North,360,0.0,4.0,90,0.00,,---,0.80,VWS V14.01,2013-06-10 01:31:00,
2013-06-09 21:36:00,71.4,68.3,30.08,North,360,0.0,4.0,90,0.00,,---,0.80,VWS V14.01,2013-06-10 01:36:00,
2013-06-09 21:41:00,71.3,68.2,30.08,North,360,0.0,4.0,90,0.00,,---,0.80,VWS V14.01,2013-06-10 01:41:00,
2013-06-09 21:46:00,71.3,68.5,30.08,North,360,0.0,4.0,91,0.00,,---,0.80,VWS V14.01,2013-06-10 01:46:00,
2013-06-09 21:51:00,71.4,68.6,30.08,North,360,0.0,4.0,91,0.00,,---,0.80,VWS V14.01,2013-06-10 01:51:00,
2013-06-09 21:56:00,71.4,69.0,30.08,North,360,0.0,4.0,92,0.00,,---,0.80,VWS V14.01,2013-06-10 01:56:00,
2013-06-09 22:02:00,71.2,68.8,30.08,North,360,0.0,4.0,92,0.00,,---,0.80,VWS V14.01,2013-06-10 02:02:00,
2013-06-09 22:07:00,71.2,68.8,30.08,North,360,0.0,0.0,92,0.00,,---,0.80,VWS V14.01,2013-06-10 02:07:00,
2013-06-09 22:12:00,71.0,68.6,30.08,North,360,3.0,3.0,92,0.00,,---,0.80,VWS V14.01,2013-06-10 02:12:00,
2013-06-09 22:17:00,71.0,68.9,30.08,North,360,2.0,4.0,93,0.00,,---,0.80,VWS V14.01,2013-06-10 02:17:00,
2013-06-09 22:22:00,70.9,68.8,30.09,North,360,3.0,4.0,93,0.00,,---,0.80,VWS V14.01,2013-06-10 02:22:00,
2013-06-09 22:27:00,70.8,68.7,30.09,North,360,4.0,4.0,93,0.00,,---,0.80,VWS V14.01,2013-06-10 02:27:00,
2013-06-09 22:32:00,70.8,69.0,30.09,North,360,1.0,4.0,94,0.00,,---,0.80,VWS V14.01,2013-06-10 02:32:00,
2013-06-09 22:37:00,70.7,68.9,30.09,North,360,0.0,4.0,94,0.00,,---,0.80,VWS V14.01,2013-06-10 02:37:00,
2013-06-09 22:42:00,70.6,68.8,30.09,North,360,1.0,4.0,94,0.00,,---,0.80,VWS V14.01,2013-06-10 02:42:00,
2013-06-09 22:47:00,70.6,68.8,30.09,North,360,0.0,4.0,94,0.00,,---,0.80,VWS V14.01,2013-06-10 02:47:00,
2013-06-09 22:52:00,70.6,68.8,30.09,North,360,1.0,4.0,94,0.00,,---,0.80,VWS V14.01,2013-06-10 02:52:00,
2013-06-09 22:57:00,70.7,68.9,30.09,North,360,0.0,4.0,94,0.00,,---,0.80,VWS V14.01,2013-06-10 02:57:00,
2013-06-09 23:02:00,70.6,68.8,30.09,North,360,4.0,4.0,94,0.01,,---,0.81,VWS V14.01,2013-06-10 03:02:00,
2013-06-09 23:08:00,70.6,68.8,30.09,North,360,2.0,4.0,94,0.01,,---,0.81,VWS V14.01,2013-06-10 03:08:00,
2013-06-09 23:13:00,70.6,68.8,30.09,North,360,2.0,5.0,94,0.01,,---,0.81,VWS V14.01,2013-06-10 03:13:00,
2013-06-09 23:18:00,70.6,68.8,30.09,North,360,0.0,5.0,94,0.01,,---,0.81,VWS V14.01,2013-06-10 03:18:00,
2013-06-09 23:23:00,70.6,68.8,30.09,North,360,1.0,5.0,94,0.01,,---,0.81,VWS V14.01,2013-06-10 03:23:00,
2013-06-09 23:28:00,70.6,68.8,30.08,North,360,0.0,5.0,94,0.01,,---,0.81,VWS V14.01,2013-06-10 03:28:00,
2013-06-09 23:33:00,70.7,68.9,30.08,North,360,4.0,5.0,94,0.01,,---,0.81,VWS V14.01,2013-06-10 03:33:00,
2013-06-09 23:38:00,70.6,68.8,30.08,North,360,0.0,5.0,94,0.01,,---,0.81,VWS V14.01,2013-06-10 03:38:00,
2013-06-09 23:43:00,70.6,68.8,30.08,North,360,2.0,5.0,94,0.01,,---,0.81,VWS V14.01,2013-06-10 03:43:00,
2013-06-09 23:48:00,70.5,68.7,30.08,North,360,2.0,5.0,94,0.01,,---,0.81,VWS V14.01,2013-06-10 03:48:00,
2013-06-09 23:53:00,70.5,68.7,30.08,North,360,1.0,5.0,94,0.01,,---,0.81,VWS V14.01,2013-06-10 03:53:00,
2013-06-09 23:58:00,70.5,69.0,30.08,North,360,1.0,5.0,95,0.01,,---,0.81,VWS V14.01,2013-06-10 03:58:00,